sensor_id;sensor_type;location;lat;lon;timestamp;P1;durP1;ratioP1;P2;durP2;ratioP2
67867;SDS011;54672;46.096;14.470;2023-02-17T00:01:57;59.40;;;24.98;;
67867;SDS011;54672;46.096;14.470;2023-02-17T00:04:22;67.15;;;25.17;;
67867;SDS011;54672;46.096;14.470;2023-02-17T00:06:48;60.20;;;25.40;;
67867;SDS011;54672;46.096;14.470;2023-02-17T00:09:13;63.20;;;26.35;;
67867;SDS011;54672;46.096;14.470;2023-02-17T00:11:39;67.95;;;27.92;;
67867;SDS011;54672;46.096;14.470;2023-02-17T00:14:04;60.00;;;23.70;;
67867;SDS011;54672;46.096;14.470;2023-02-17T00:16:30;63.75;;;25.88;;
67867;SDS011;54672;46.096;14.470;2023-02-17T00:19:00;54.05;;;22.25;;
67867;SDS011;54672;46.096;14.470;2023-02-17T00:21:27;63.78;;;26.48;;
67867;SDS011;54672;46.096;14.470;2023-02-17T00:23:55;61.50;;;27.63;;
67867;SDS011;54672;46.096;14.470;2023-02-17T00:26:21;54.83;;;23.77;;
67867;SDS011;54672;46.096;14.470;2023-02-17T00:28:47;59.10;;;25.83;;
67867;SDS011;54672;46.096;14.470;2023-02-17T00:31:17;54.95;;;25.23;;
67867;SDS011;54672;46.096;14.470;2023-02-17T00:33:45;58.50;;;25.02;;
67867;SDS011;54672;46.096;14.470;2023-02-17T00:36:11;65.45;;;26.50;;
67867;SDS011;54672;46.096;14.470;2023-02-17T00:38:38;58.15;;;22.77;;
67867;SDS011;54672;46.096;14.470;2023-02-17T00:41:04;59.95;;;23.20;;
67867;SDS011;54672;46.096;14.470;2023-02-17T00:43:30;57.05;;;23.23;;
67867;SDS011;54672;46.096;14.470;2023-02-17T00:45:56;53.00;;;23.63;;
67867;SDS011;54672;46.096;14.470;2023-02-17T00:48:21;58.88;;;24.02;;
67867;SDS011;54672;46.096;14.470;2023-02-17T00:50:47;55.17;;;23.80;;
67867;SDS011;54672;46.096;14.470;2023-02-17T00:53:12;55.40;;;21.92;;
67867;SDS011;54672;46.096;14.470;2023-02-17T00:55:37;52.83;;;20.52;;
67867;SDS011;54672;46.096;14.470;2023-02-17T00:58:03;53.20;;;23.10;;
67867;SDS011;54672;46.096;14.470;2023-02-17T01:00:29;52.08;;;23.05;;
67867;SDS011;54672;46.096;14.470;2023-02-17T01:02:54;58.90;;;22.30;;
67867;SDS011;54672;46.096;14.470;2023-02-17T01:05:20;54.17;;;21.23;;
67867;SDS011;54672;46.096;14.470;2023-02-17T01:07:45;56.65;;;23.92;;
67867;SDS011;54672;46.096;14.470;2023-02-17T01:10:11;50.45;;;22.60;;
67867;SDS011;54672;46.096;14.470;2023-02-17T01:12:36;60.08;;;24.67;;
67867;SDS011;54672;46.096;14.470;2023-02-17T01:15:02;61.80;;;23.13;;
67867;SDS011;54672;46.096;14.470;2023-02-17T01:17:28;63.33;;;23.65;;
67867;SDS011;54672;46.096;14.470;2023-02-17T01:19:53;56.20;;;25.35;;
67867;SDS011;54672;46.096;14.470;2023-02-17T01:22:18;51.50;;;21.08;;
67867;SDS011;54672;46.096;14.470;2023-02-17T01:24:44;57.85;;;24.05;;
67867;SDS011;54672;46.096;14.470;2023-02-17T01:27:09;58.90;;;23.73;;
67867;SDS011;54672;46.096;14.470;2023-02-17T01:29:35;54.25;;;24.38;;
67867;SDS011;54672;46.096;14.470;2023-02-17T01:32:00;62.40;;;25.67;;
67867;SDS011;54672;46.096;14.470;2023-02-17T01:34:26;71.63;;;28.40;;
67867;SDS011;54672;46.096;14.470;2023-02-17T01:36:51;63.33;;;25.98;;
67867;SDS011;54672;46.096;14.470;2023-02-17T01:39:17;47.03;;;21.48;;
67867;SDS011;54672;46.096;14.470;2023-02-17T01:41:42;67.93;;;26.70;;
67867;SDS011;54672;46.096;14.470;2023-02-17T01:46:43;64.20;;;25.35;;
67867;SDS011;54672;46.096;14.470;2023-02-17T01:49:34;64.78;;;25.75;;
67867;SDS011;54672;46.096;14.470;2023-02-17T01:54:44;58.45;;;24.77;;
67867;SDS011;54672;46.096;14.470;2023-02-17T01:57:14;56.42;;;24.95;;
67867;SDS011;54672;46.096;14.470;2023-02-17T01:59:43;62.50;;;26.83;;
67867;SDS011;54672;46.096;14.470;2023-02-17T02:02:09;53.40;;;23.48;;
67867;SDS011;54672;46.096;14.470;2023-02-17T02:04:36;67.57;;;25.58;;
67867;SDS011;54672;46.096;14.470;2023-02-17T02:07:05;63.63;;;26.00;;
67867;SDS011;54672;46.096;14.470;2023-02-17T02:09:38;61.80;;;26.98;;
67867;SDS011;54672;46.096;14.470;2023-02-17T02:12:17;59.22;;;24.80;;
67867;SDS011;54672;46.096;14.470;2023-02-17T02:14:44;60.90;;;25.42;;
67867;SDS011;54672;46.096;14.470;2023-02-17T02:17:12;59.97;;;25.35;;
67867;SDS011;54672;46.096;14.470;2023-02-17T02:20:02;63.20;;;25.00;;
67867;SDS011;54672;46.096;14.470;2023-02-17T02:34:08;62.53;;;24.55;;
67867;SDS011;54672;46.096;14.470;2023-02-17T02:36:59;61.20;;;26.70;;
67867;SDS011;54672;46.096;14.470;2023-02-17T02:39:34;62.05;;;24.77;;
67867;SDS011;54672;46.096;14.470;2023-02-17T02:42:05;70.35;;;29.90;;
67867;SDS011;54672;46.096;14.470;2023-02-17T02:44:34;62.00;;;27.40;;
67867;SDS011;54672;46.096;14.470;2023-02-17T02:49:27;59.75;;;25.15;;
67867;SDS011;54672;46.096;14.470;2023-02-17T02:52:01;61.85;;;25.83;;
67867;SDS011;54672;46.096;14.470;2023-02-17T02:57:38;57.28;;;21.50;;
67867;SDS011;54672;46.096;14.470;2023-02-17T03:08:40;65.40;;;24.85;;
67867;SDS011;54672;46.096;14.470;2023-02-17T03:11:10;65.10;;;26.20;;
67867;SDS011;54672;46.096;14.470;2023-02-17T03:13:36;64.88;;;25.05;;
67867;SDS011;54672;46.096;14.470;2023-02-17T03:16:04;66.82;;;27.15;;
67867;SDS011;54672;46.096;14.470;2023-02-17T03:18:31;64.72;;;27.33;;
67867;SDS011;54672;46.096;14.470;2023-02-17T03:20:59;65.38;;;26.35;;
67867;SDS011;54672;46.096;14.470;2023-02-17T03:23:30;65.13;;;26.70;;
67867;SDS011;54672;46.096;14.470;2023-02-17T03:25:55;60.88;;;24.17;;
67867;SDS011;54672;46.096;14.470;2023-02-17T03:28:22;62.90;;;27.30;;
67867;SDS011;54672;46.096;14.470;2023-02-17T03:30:48;56.85;;;26.60;;
67867;SDS011;54672;46.096;14.470;2023-02-17T03:33:13;67.75;;;28.27;;
67867;SDS011;54672;46.096;14.470;2023-02-17T03:35:39;60.08;;;24.13;;
67867;SDS011;54672;46.096;14.470;2023-02-17T03:38:04;68.82;;;27.80;;
67867;SDS011;54672;46.096;14.470;2023-02-17T03:40:30;61.10;;;25.33;;
67867;SDS011;54672;46.096;14.470;2023-02-17T03:42:55;71.75;;;29.50;;
67867;SDS011;54672;46.096;14.470;2023-02-17T03:45:22;68.40;;;28.00;;
67867;SDS011;54672;46.096;14.470;2023-02-17T03:47:47;55.78;;;23.88;;
67867;SDS011;54672;46.096;14.470;2023-02-17T03:50:13;74.35;;;31.65;;
67867;SDS011;54672;46.096;14.470;2023-02-17T03:52:38;66.85;;;27.50;;
67867;SDS011;54672;46.096;14.470;2023-02-17T03:55:04;53.55;;;24.05;;
67867;SDS011;54672;46.096;14.470;2023-02-17T03:57:29;70.97;;;26.30;;
67867;SDS011;54672;46.096;14.470;2023-02-17T03:59:55;78.90;;;29.92;;
67867;SDS011;54672;46.096;14.470;2023-02-17T04:02:21;62.00;;;24.38;;
67867;SDS011;54672;46.096;14.470;2023-02-17T04:04:46;62.65;;;24.48;;
67867;SDS011;54672;46.096;14.470;2023-02-17T04:07:12;64.50;;;26.13;;
67867;SDS011;54672;46.096;14.470;2023-02-17T04:09:38;66.63;;;26.10;;
67867;SDS011;54672;46.096;14.470;2023-02-17T04:12:03;69.75;;;28.55;;
67867;SDS011;54672;46.096;14.470;2023-02-17T04:14:29;70.65;;;28.50;;
67867;SDS011;54672;46.096;14.470;2023-02-17T04:16:54;63.65;;;27.95;;
67867;SDS011;54672;46.096;14.470;2023-02-17T04:19:20;65.82;;;28.38;;
67867;SDS011;54672;46.096;14.470;2023-02-17T04:21:45;68.32;;;27.77;;
67867;SDS011;54672;46.096;14.470;2023-02-17T04:24:10;69.93;;;27.00;;
67867;SDS011;54672;46.096;14.470;2023-02-17T04:26:36;62.45;;;25.05;;
67867;SDS011;54672;46.096;14.470;2023-02-17T04:29:02;64.80;;;25.60;;
67867;SDS011;54672;46.096;14.470;2023-02-17T04:31:28;67.07;;;28.33;;
67867;SDS011;54672;46.096;14.470;2023-02-17T04:33:54;72.78;;;29.23;;
67867;SDS011;54672;46.096;14.470;2023-02-17T04:36:19;66.10;;;28.30;;
67867;SDS011;54672;46.096;14.470;2023-02-17T04:38:45;67.03;;;27.98;;
67867;SDS011;54672;46.096;14.470;2023-02-17T04:41:10;67.75;;;25.92;;
67867;SDS011;54672;46.096;14.470;2023-02-17T04:43:36;63.97;;;26.90;;
67867;SDS011;54672;46.096;14.470;2023-02-17T04:46:01;71.15;;;26.98;;
67867;SDS011;54672;46.096;14.470;2023-02-17T04:48:27;69.07;;;29.25;;
67867;SDS011;54672;46.096;14.470;2023-02-17T04:50:52;70.80;;;26.55;;
67867;SDS011;54672;46.096;14.470;2023-02-17T04:53:18;80.47;;;30.08;;
67867;SDS011;54672;46.096;14.470;2023-02-17T04:55:46;56.40;;;24.27;;
67867;SDS011;54672;46.096;14.470;2023-02-17T04:58:13;72.78;;;26.88;;
67867;SDS011;54672;46.096;14.470;2023-02-17T05:00:39;50.15;;;21.42;;
67867;SDS011;54672;46.096;14.470;2023-02-17T05:03:04;66.43;;;25.63;;
67867;SDS011;54672;46.096;14.470;2023-02-17T05:05:30;68.53;;;24.33;;
67867;SDS011;54672;46.096;14.470;2023-02-17T05:07:55;65.43;;;26.90;;
67867;SDS011;54672;46.096;14.470;2023-02-17T05:10:21;66.85;;;27.65;;
67867;SDS011;54672;46.096;14.470;2023-02-17T05:12:46;57.17;;;25.23;;
67867;SDS011;54672;46.096;14.470;2023-02-17T05:15:12;67.35;;;27.88;;
67867;SDS011;54672;46.096;14.470;2023-02-17T05:17:37;64.25;;;27.38;;
67867;SDS011;54672;46.096;14.470;2023-02-17T05:20:04;61.95;;;22.75;;
67867;SDS011;54672;46.096;14.470;2023-02-17T05:22:30;58.03;;;23.67;;
67867;SDS011;54672;46.096;14.470;2023-02-17T05:24:56;69.47;;;26.42;;
67867;SDS011;54672;46.096;14.470;2023-02-17T05:27:21;62.95;;;23.98;;
67867;SDS011;54672;46.096;14.470;2023-02-17T05:29:47;64.43;;;25.40;;
67867;SDS011;54672;46.096;14.470;2023-02-17T05:32:12;55.20;;;22.73;;
67867;SDS011;54672;46.096;14.470;2023-02-17T05:34:37;61.88;;;23.45;;
67867;SDS011;54672;46.096;14.470;2023-02-17T05:37:03;71.03;;;25.10;;
67867;SDS011;54672;46.096;14.470;2023-02-17T05:39:29;72.38;;;29.27;;
67867;SDS011;54672;46.096;14.470;2023-02-17T05:41:54;67.97;;;25.45;;
67867;SDS011;54672;46.096;14.470;2023-02-17T05:44:20;66.53;;;26.42;;
67867;SDS011;54672;46.096;14.470;2023-02-17T05:46:45;65.20;;;24.48;;
67867;SDS011;54672;46.096;14.470;2023-02-17T05:49:11;58.70;;;24.38;;
67867;SDS011;54672;46.096;14.470;2023-02-17T05:51:36;68.35;;;26.08;;
67867;SDS011;54672;46.096;14.470;2023-02-17T05:54:02;87.35;;;38.42;;
67867;SDS011;54672;46.096;14.470;2023-02-17T05:56:28;75.03;;;32.85;;
67867;SDS011;54672;46.096;14.470;2023-02-17T05:58:53;72.00;;;30.48;;
67867;SDS011;54672;46.096;14.470;2023-02-17T06:01:18;78.15;;;31.20;;
67867;SDS011;54672;46.096;14.470;2023-02-17T06:03:44;75.38;;;30.15;;
67867;SDS011;54672;46.096;14.470;2023-02-17T06:06:10;85.90;;;32.60;;
67867;SDS011;54672;46.096;14.470;2023-02-17T06:08:35;94.28;;;37.47;;
67867;SDS011;54672;46.096;14.470;2023-02-17T06:11:01;79.88;;;31.30;;
67867;SDS011;54672;46.096;14.470;2023-02-17T06:13:26;140.93;;;48.95;;
67867;SDS011;54672;46.096;14.470;2023-02-17T06:15:52;194.18;;;65.78;;
67867;SDS011;54672;46.096;14.470;2023-02-17T06:18:17;159.90;;;52.25;;
67867;SDS011;54672;46.096;14.470;2023-02-17T06:20:43;64.78;;;25.35;;
67867;SDS011;54672;46.096;14.470;2023-02-17T06:23:09;191.10;;;60.88;;
67867;SDS011;54672;46.096;14.470;2023-02-17T06:25:35;91.88;;;36.67;;
67867;SDS011;54672;46.096;14.470;2023-02-17T06:28:00;74.47;;;30.25;;
67867;SDS011;54672;46.096;14.470;2023-02-17T06:30:26;70.45;;;28.90;;
67867;SDS011;54672;46.096;14.470;2023-02-17T06:32:51;71.80;;;31.92;;
67867;SDS011;54672;46.096;14.470;2023-02-17T06:35:17;76.53;;;31.17;;
67867;SDS011;54672;46.096;14.470;2023-02-17T06:37:42;84.65;;;32.10;;
67867;SDS011;54672;46.096;14.470;2023-02-17T06:40:08;72.70;;;29.60;;
67867;SDS011;54672;46.096;14.470;2023-02-17T06:42:34;69.47;;;30.45;;
67867;SDS011;54672;46.096;14.470;2023-02-17T06:45:00;53.30;;;22.60;;
67867;SDS011;54672;46.096;14.470;2023-02-17T06:47:29;48.80;;;19.42;;
67867;SDS011;54672;46.096;14.470;2023-02-17T06:49:55;61.63;;;23.00;;
67867;SDS011;54672;46.096;14.470;2023-02-17T06:52:20;67.65;;;25.95;;
67867;SDS011;54672;46.096;14.470;2023-02-17T06:54:45;66.25;;;25.52;;
67867;SDS011;54672;46.096;14.470;2023-02-17T06:57:11;55.58;;;23.33;;
67867;SDS011;54672;46.096;14.470;2023-02-17T06:59:36;45.25;;;19.92;;
67867;SDS011;54672;46.096;14.470;2023-02-17T07:02:02;57.88;;;24.40;;
67867;SDS011;54672;46.096;14.470;2023-02-17T07:04:27;64.30;;;28.15;;
67867;SDS011;54672;46.096;14.470;2023-02-17T07:06:53;61.97;;;23.63;;
67867;SDS011;54672;46.096;14.470;2023-02-17T07:09:18;61.95;;;25.52;;
67867;SDS011;54672;46.096;14.470;2023-02-17T07:11:44;63.60;;;25.55;;
67867;SDS011;54672;46.096;14.470;2023-02-17T07:14:09;55.55;;;23.77;;
67867;SDS011;54672;46.096;14.470;2023-02-17T07:16:35;59.33;;;24.23;;
67867;SDS011;54672;46.096;14.470;2023-02-17T07:19:00;54.03;;;23.75;;
67867;SDS011;54672;46.096;14.470;2023-02-17T07:21:25;58.35;;;22.55;;
67867;SDS011;54672;46.096;14.470;2023-02-17T07:23:51;59.58;;;24.83;;
67867;SDS011;54672;46.096;14.470;2023-02-17T07:26:16;65.60;;;26.60;;
67867;SDS011;54672;46.096;14.470;2023-02-17T07:28:42;59.05;;;25.10;;
67867;SDS011;54672;46.096;14.470;2023-02-17T07:31:12;60.92;;;26.92;;
67867;SDS011;54672;46.096;14.470;2023-02-17T07:33:39;59.85;;;26.38;;
67867;SDS011;54672;46.096;14.470;2023-02-17T07:36:08;55.67;;;24.15;;
67867;SDS011;54672;46.096;14.470;2023-02-17T07:38:36;61.60;;;23.98;;
67867;SDS011;54672;46.096;14.470;2023-02-17T07:41:05;53.25;;;22.33;;
67867;SDS011;54672;46.096;14.470;2023-02-17T07:43:35;57.08;;;24.92;;
67867;SDS011;54672;46.096;14.470;2023-02-17T07:46:01;48.28;;;21.13;;
67867;SDS011;54672;46.096;14.470;2023-02-17T07:48:27;49.35;;;21.40;;
67867;SDS011;54672;46.096;14.470;2023-02-17T07:50:52;49.20;;;21.73;;
67867;SDS011;54672;46.096;14.470;2023-02-17T07:53:18;46.95;;;21.25;;
67867;SDS011;54672;46.096;14.470;2023-02-17T07:55:43;49.50;;;21.33;;
67867;SDS011;54672;46.096;14.470;2023-02-17T07:58:09;52.40;;;23.88;;
67867;SDS011;54672;46.096;14.470;2023-02-17T08:00:34;105.15;;;47.10;;
67867;SDS011;54672;46.096;14.470;2023-02-17T08:03:00;49.90;;;21.63;;
67867;SDS011;54672;46.096;14.470;2023-02-17T08:05:25;41.65;;;18.92;;
67867;SDS011;54672;46.096;14.470;2023-02-17T08:07:51;42.75;;;19.30;;
67867;SDS011;54672;46.096;14.470;2023-02-17T08:10:36;47.03;;;20.80;;
67867;SDS011;54672;46.096;14.470;2023-02-17T08:13:21;55.05;;;22.58;;
67867;SDS011;54672;46.096;14.470;2023-02-17T08:15:47;57.60;;;23.27;;
67867;SDS011;54672;46.096;14.470;2023-02-17T08:18:12;55.20;;;22.25;;
67867;SDS011;54672;46.096;14.470;2023-02-17T08:20:38;49.88;;;22.15;;
67867;SDS011;54672;46.096;14.470;2023-02-17T08:23:03;50.97;;;23.17;;
67867;SDS011;54672;46.096;14.470;2023-02-17T08:25:32;49.97;;;22.55;;
67867;SDS011;54672;46.096;14.470;2023-02-17T08:27:59;52.10;;;21.13;;
67867;SDS011;54672;46.096;14.470;2023-02-17T08:30:25;46.40;;;22.08;;
67867;SDS011;54672;46.096;14.470;2023-02-17T08:32:51;50.53;;;21.27;;
67867;SDS011;54672;46.096;14.470;2023-02-17T08:35:16;42.75;;;20.85;;
67867;SDS011;54672;46.096;14.470;2023-02-17T08:37:43;47.17;;;21.73;;
67867;SDS011;54672;46.096;14.470;2023-02-17T08:40:09;50.97;;;21.40;;
67867;SDS011;54672;46.096;14.470;2023-02-17T08:42:35;46.05;;;19.23;;
67867;SDS011;54672;46.096;14.470;2023-02-17T08:45:01;45.97;;;20.52;;
67867;SDS011;54672;46.096;14.470;2023-02-17T08:47:28;45.38;;;21.25;;
67867;SDS011;54672;46.096;14.470;2023-02-17T08:49:53;47.55;;;20.42;;
67867;SDS011;54672;46.096;14.470;2023-02-17T08:52:19;51.22;;;21.75;;
67867;SDS011;54672;46.096;14.470;2023-02-17T08:54:44;47.67;;;21.23;;
67867;SDS011;54672;46.096;14.470;2023-02-17T08:57:09;49.53;;;20.85;;
67867;SDS011;54672;46.096;14.470;2023-02-17T08:59:35;50.55;;;20.20;;
67867;SDS011;54672;46.096;14.470;2023-02-17T09:02:00;49.45;;;20.95;;
67867;SDS011;54672;46.096;14.470;2023-02-17T09:04:26;40.08;;;17.55;;
67867;SDS011;54672;46.096;14.470;2023-02-17T09:06:52;47.33;;;21.35;;
67867;SDS011;54672;46.096;14.470;2023-02-17T09:09:21;47.88;;;21.15;;
67867;SDS011;54672;46.096;14.470;2023-02-17T09:11:50;45.60;;;19.83;;
67867;SDS011;54672;46.096;14.470;2023-02-17T09:14:16;46.95;;;20.15;;
67867;SDS011;54672;46.096;14.470;2023-02-17T09:16:42;47.90;;;20.02;;
67867;SDS011;54672;46.096;14.470;2023-02-17T09:19:07;43.60;;;20.15;;
67867;SDS011;54672;46.096;14.470;2023-02-17T09:21:33;47.00;;;20.50;;
67867;SDS011;54672;46.096;14.470;2023-02-17T09:23:58;42.22;;;19.70;;
67867;SDS011;54672;46.096;14.470;2023-02-17T09:26:23;42.85;;;18.17;;
67867;SDS011;54672;46.096;14.470;2023-02-17T09:28:49;49.10;;;20.33;;
67867;SDS011;54672;46.096;14.470;2023-02-17T09:31:21;43.85;;;19.90;;
67867;SDS011;54672;46.096;14.470;2023-02-17T09:33:49;45.83;;;20.35;;
67867;SDS011;54672;46.096;14.470;2023-02-17T09:36:19;48.08;;;21.40;;
67867;SDS011;54672;46.096;14.470;2023-02-17T09:38:58;46.88;;;20.75;;
67867;SDS011;54672;46.096;14.470;2023-02-17T09:41:25;50.33;;;21.38;;
67867;SDS011;54672;46.096;14.470;2023-02-17T09:44:01;39.90;;;18.55;;
67867;SDS011;54672;46.096;14.470;2023-02-17T09:49:09;48.50;;;21.92;;
67867;SDS011;54672;46.096;14.470;2023-02-17T09:54:27;44.35;;;21.95;;
67867;SDS011;54672;46.096;14.470;2023-02-17T09:56:58;45.72;;;21.85;;
67867;SDS011;54672;46.096;14.470;2023-02-17T09:59:38;48.65;;;22.52;;
67867;SDS011;54672;46.096;14.470;2023-02-17T10:02:18;57.92;;;25.60;;
67867;SDS011;54672;46.096;14.470;2023-02-17T10:05:06;49.38;;;24.23;;
67867;SDS011;54672;46.096;14.470;2023-02-17T10:07:46;55.28;;;25.20;;
67867;SDS011;54672;46.096;14.470;2023-02-17T10:10:18;49.53;;;21.58;;
67867;SDS011;54672;46.096;14.470;2023-02-17T10:12:49;53.38;;;24.95;;
67867;SDS011;54672;46.096;14.470;2023-02-17T10:15:21;52.15;;;23.98;;
67867;SDS011;54672;46.096;14.470;2023-02-17T10:20:34;50.40;;;24.42;;
67867;SDS011;54672;46.096;14.470;2023-02-17T10:23:15;61.80;;;26.17;;
67867;SDS011;54672;46.096;14.470;2023-02-17T10:25:47;55.45;;;25.42;;
67867;SDS011;54672;46.096;14.470;2023-02-17T10:31:03;57.40;;;24.67;;
67867;SDS011;54672;46.096;14.470;2023-02-17T10:33:45;54.13;;;24.27;;
67867;SDS011;54672;46.096;14.470;2023-02-17T10:39:27;51.53;;;23.30;;
67867;SDS011;54672;46.096;14.470;2023-02-17T10:42:30;49.10;;;23.00;;
67867;SDS011;54672;46.096;14.470;2023-02-17T10:45:45;46.15;;;22.02;;
67867;SDS011;54672;46.096;14.470;2023-02-17T10:47:50;51.97;;;22.75;;
67867;SDS011;54672;46.096;14.470;2023-02-17T10:50:22;52.45;;;22.17;;
67867;SDS011;54672;46.096;14.470;2023-02-17T10:52:48;46.17;;;21.60;;
67867;SDS011;54672;46.096;14.470;2023-02-17T10:58:14;47.35;;;21.05;;
67867;SDS011;54672;46.096;14.470;2023-02-17T11:00:46;38.70;;;16.23;;
67867;SDS011;54672;46.096;14.470;2023-02-17T11:03:20;32.63;;;15.73;;
67867;SDS011;54672;46.096;14.470;2023-02-17T11:06:01;31.58;;;14.10;;
67867;SDS011;54672;46.096;14.470;2023-02-17T11:08:33;35.30;;;14.57;;
67867;SDS011;54672;46.096;14.470;2023-02-17T11:11:24;31.00;;;13.43;;
67867;SDS011;54672;46.096;14.470;2023-02-17T11:19:04;31.02;;;14.32;;
67867;SDS011;54672;46.096;14.470;2023-02-17T11:21:31;28.05;;;13.25;;
67867;SDS011;54672;46.096;14.470;2023-02-17T11:24:01;35.15;;;14.73;;
67867;SDS011;54672;46.096;14.470;2023-02-17T11:26:30;28.63;;;14.33;;
67867;SDS011;54672;46.096;14.470;2023-02-17T11:29:20;30.23;;;13.85;;
67867;SDS011;54672;46.096;14.470;2023-02-17T11:31:56;34.15;;;14.68;;
67867;SDS011;54672;46.096;14.470;2023-02-17T11:34:25;31.42;;;14.85;;
67867;SDS011;54672;46.096;14.470;2023-02-17T11:36:56;32.55;;;14.10;;
67867;SDS011;54672;46.096;14.470;2023-02-17T11:41:50;30.55;;;13.55;;
67867;SDS011;54672;46.096;14.470;2023-02-17T11:44:26;29.75;;;13.70;;
67867;SDS011;54672;46.096;14.470;2023-02-17T11:47:03;27.30;;;13.45;;
67867;SDS011;54672;46.096;14.470;2023-02-17T11:52:28;29.35;;;13.55;;
67867;SDS011;54672;46.096;14.470;2023-02-17T11:55:29;31.58;;;14.13;;
67867;SDS011;54672;46.096;14.470;2023-02-17T11:58:05;31.02;;;14.27;;
67867;SDS011;54672;46.096;14.470;2023-02-17T12:03:36;31.17;;;13.75;;
67867;SDS011;54672;46.096;14.470;2023-02-17T12:17:19;28.48;;;13.05;;
67867;SDS011;54672;46.096;14.470;2023-02-17T12:19:59;29.02;;;14.07;;
67867;SDS011;54672;46.096;14.470;2023-02-17T12:23:07;31.02;;;13.93;;
67867;SDS011;54672;46.096;14.470;2023-02-17T12:25:44;29.23;;;13.30;;
67867;SDS011;54672;46.096;14.470;2023-02-17T12:29:16;29.67;;;13.35;;
67867;SDS011;54672;46.096;14.470;2023-02-17T12:31:19;27.45;;;13.35;;
67867;SDS011;54672;46.096;14.470;2023-02-17T12:36:46;27.05;;;12.50;;
67867;SDS011;54672;46.096;14.470;2023-02-17T12:39:16;28.00;;;12.75;;
67867;SDS011;54672;46.096;14.470;2023-02-17T12:41:54;24.77;;;13.13;;
67867;SDS011;54672;46.096;14.470;2023-02-17T12:44:30;28.38;;;13.32;;
67867;SDS011;54672;46.096;14.470;2023-02-17T12:47:01;27.60;;;13.02;;
67867;SDS011;54672;46.096;14.470;2023-02-17T12:49:33;28.75;;;13.45;;
67867;SDS011;54672;46.096;14.470;2023-02-17T12:52:05;29.75;;;14.02;;
67867;SDS011;54672;46.096;14.470;2023-02-17T12:54:33;26.23;;;12.65;;
67867;SDS011;54672;46.096;14.470;2023-02-17T12:57:22;29.83;;;14.55;;
67867;SDS011;54672;46.096;14.470;2023-02-17T12:59:54;30.50;;;14.05;;
67867;SDS011;54672;46.096;14.470;2023-02-17T13:02:23;28.38;;;14.18;;
67867;SDS011;54672;46.096;14.470;2023-02-17T13:04:51;28.88;;;13.43;;
67867;SDS011;54672;46.096;14.470;2023-02-17T13:07:39;29.00;;;14.30;;
67867;SDS011;54672;46.096;14.470;2023-02-17T13:10:16;30.98;;;14.50;;
67867;SDS011;54672;46.096;14.470;2023-02-17T13:12:53;30.98;;;13.95;;
67867;SDS011;54672;46.096;14.470;2023-02-17T13:15:29;31.83;;;14.38;;
67867;SDS011;54672;46.096;14.470;2023-02-17T13:18:02;30.20;;;15.30;;
67867;SDS011;54672;46.096;14.470;2023-02-17T13:20:54;36.15;;;16.30;;
67867;SDS011;54672;46.096;14.470;2023-02-17T13:23:29;36.47;;;15.95;;
67867;SDS011;54672;46.096;14.470;2023-02-17T13:26:07;36.20;;;15.35;;
67867;SDS011;54672;46.096;14.470;2023-02-17T13:28:41;34.95;;;16.60;;
67867;SDS011;54672;46.096;14.470;2023-02-17T13:31:08;36.13;;;16.80;;
67867;SDS011;54672;46.096;14.470;2023-02-17T13:33:40;36.38;;;16.77;;
67867;SDS011;54672;46.096;14.470;2023-02-17T13:36:40;40.55;;;18.33;;
67867;SDS011;54672;46.096;14.470;2023-02-17T13:39:27;36.08;;;17.58;;
67867;SDS011;54672;46.096;14.470;2023-02-17T13:41:51;39.03;;;17.50;;
67867;SDS011;54672;46.096;14.470;2023-02-17T13:46:44;40.75;;;17.30;;
67867;SDS011;54672;46.096;14.470;2023-02-17T13:49:20;40.10;;;18.33;;
67867;SDS011;54672;46.096;14.470;2023-02-17T13:51:48;39.33;;;17.52;;
67867;SDS011;54672;46.096;14.470;2023-02-17T13:54:14;36.13;;;17.13;;
67867;SDS011;54672;46.096;14.470;2023-02-17T13:56:48;40.35;;;18.08;;
67867;SDS011;54672;46.096;14.470;2023-02-17T13:59:16;36.10;;;17.17;;
67867;SDS011;54672;46.096;14.470;2023-02-17T14:01:48;43.47;;;18.08;;
67867;SDS011;54672;46.096;14.470;2023-02-17T14:04:16;43.83;;;18.88;;
67867;SDS011;54672;46.096;14.470;2023-02-17T14:06:44;40.22;;;16.92;;
67867;SDS011;54672;46.096;14.470;2023-02-17T14:09:20;43.63;;;19.17;;
67867;SDS011;54672;46.096;14.470;2023-02-17T14:11:56;43.42;;;17.80;;
67867;SDS011;54672;46.096;14.470;2023-02-17T14:14:26;43.15;;;18.88;;
67867;SDS011;54672;46.096;14.470;2023-02-17T14:17:02;39.30;;;17.55;;
67867;SDS011;54672;46.096;14.470;2023-02-17T14:19:40;40.17;;;18.25;;
67867;SDS011;54672;46.096;14.470;2023-02-17T14:22:20;41.33;;;19.40;;
67867;SDS011;54672;46.096;14.470;2023-02-17T14:25:00;42.00;;;18.25;;
67867;SDS011;54672;46.096;14.470;2023-02-17T14:27:39;41.63;;;17.77;;
67867;SDS011;54672;46.096;14.470;2023-02-17T14:30:11;43.90;;;17.90;;
67867;SDS011;54672;46.096;14.470;2023-02-17T14:32:59;43.95;;;18.25;;
67867;SDS011;54672;46.096;14.470;2023-02-17T14:35:48;41.70;;;17.88;;
67867;SDS011;54672;46.096;14.470;2023-02-17T14:38:26;41.55;;;18.48;;
67867;SDS011;54672;46.096;14.470;2023-02-17T14:40:55;42.85;;;18.50;;
67867;SDS011;54672;46.096;14.470;2023-02-17T14:43:22;46.22;;;18.45;;
67867;SDS011;54672;46.096;14.470;2023-02-17T14:45:47;47.05;;;20.08;;
67867;SDS011;54672;46.096;14.470;2023-02-17T14:48:13;46.15;;;20.17;;
67867;SDS011;54672;46.096;14.470;2023-02-17T14:50:39;45.95;;;18.88;;
67867;SDS011;54672;46.096;14.470;2023-02-17T14:53:10;46.53;;;19.13;;
67867;SDS011;54672;46.096;14.470;2023-02-17T14:55:45;41.53;;;18.65;;
67867;SDS011;54672;46.096;14.470;2023-02-17T14:58:18;41.95;;;19.45;;
67867;SDS011;54672;46.096;14.470;2023-02-17T15:00:46;40.35;;;18.58;;
67867;SDS011;54672;46.096;14.470;2023-02-17T15:03:12;45.35;;;18.88;;
67867;SDS011;54672;46.096;14.470;2023-02-17T15:05:38;50.65;;;20.73;;
67867;SDS011;54672;46.096;14.470;2023-02-17T15:08:03;52.38;;;19.92;;
67867;SDS011;54672;46.096;14.470;2023-02-17T15:10:29;47.47;;;18.92;;
67867;SDS011;54672;46.096;14.470;2023-02-17T15:12:54;45.47;;;19.52;;
67867;SDS011;54672;46.096;14.470;2023-02-17T15:15:20;44.88;;;19.27;;
67867;SDS011;54672;46.096;14.470;2023-02-17T15:17:46;49.20;;;21.05;;
67867;SDS011;54672;46.096;14.470;2023-02-17T15:20:12;41.58;;;20.15;;
67867;SDS011;54672;46.096;14.470;2023-02-17T15:22:39;50.70;;;20.13;;
67867;SDS011;54672;46.096;14.470;2023-02-17T15:25:11;44.33;;;20.08;;
67867;SDS011;54672;46.096;14.470;2023-02-17T15:27:39;49.35;;;20.13;;
67867;SDS011;54672;46.096;14.470;2023-02-17T15:30:05;50.47;;;20.75;;
67867;SDS011;54672;46.096;14.470;2023-02-17T15:32:34;48.50;;;20.65;;
67867;SDS011;54672;46.096;14.470;2023-02-17T15:34:59;50.47;;;20.02;;
67867;SDS011;54672;46.096;14.470;2023-02-17T15:37:25;52.22;;;21.95;;
67867;SDS011;54672;46.096;14.470;2023-02-17T15:39:50;51.15;;;21.05;;